Portland, Oregon
Traffic Map
Current Weather Conditions
Portland, Oregon
Clear
Clear
17°
Feels Like: 17°
Wind Chill: 17° Ceiling: Unl
Heat Index: 17° Visibility: 10mi
Dew Point: 11° Wind: 7mph
Humidity: 67% Direction: 330° (NNW)
Pressure: 30.1in Gusts: 0mph
Raw Report DataKPDX 281653Z 33006KT 10SM CLR 17/11 A3010 RMK AO2 SLP192 T01720111 $
Traffic Incident Summary
Active as of:
Severity:
Category:
InformationThere was an issue retrieving the traffic information for this location. Please try a different location or try again shortly.
Advertisements
Track Severe Weather on mobile